CheckWX is a tool to help pilots better visualize weather data.  It is not intended as a substitute for an official pre-flight weather briefing.

05:17:05 UTC

KNGU METAR
Norfolk NS (Chambers Field) Airport
Norfolk, Virginia, USA
Current

18 mins ago

KNGU 240459Z 33013KT 10SM SCT010 BKN025 OVC036 21/20 A2987 RMK AO2 SLP116 T02110200 402720206 PNO
Observed
Jul-24 @ 04:59 UTC
Wind
  • 330° at 13 KTS
Visibility
10 SM
Flight Rules
MVFR
Cloud Levels
  • Scattered at 1,000' AGL
  • Broken at 2,500' AGL
  • Overcast at 3,600' AGL
Temperature
21°C / 70°F
Dewpoint
20°C / 68°F
Humidity
94%
Altimeter
29.87" Hg
Pressure
1011.52 hPa
Previous

1 hour ago

KNGU 240359Z 33009KT 10SM SCT010 BKN015 OVC031 22/20 A2987 RMK AO2 RAE01 SLP115 P0001 T02170200 PNO
Observed
Jul-24 @ 03:59 UTC
Wind
  • 330° at 9 KTS
Visibility
10 SM
Flight Rules
MVFR
Cloud Levels
  • Scattered at 1,000' AGL
  • Broken at 1,500' AGL
  • Overcast at 3,100' AGL
Temperature
22°C / 72°F
Dewpoint
20°C / 68°F
Humidity
88%
Altimeter
29.87" Hg
Pressure
1011.52 hPa
Current Rain
0.01"
Previous

2 hours ago

KNGU 240259Z COR 32013KT 10SM -RA SCT007 BKN010 OVC026 21/19 A2987 RMK AO2 RAE14B42 SLP113 P0007 60034 T02060194 53001 PNO
Observed
Jul-24 @ 02:59 UTC
Wind
  • 320° at 13 KTS
Visibility
10 SM
Flight Rules
MVFR
Conditions
Light Rain
Cloud Levels
  • Scattered at 700' AGL
  • Broken at 1,000' AGL
  • Overcast at 2,600' AGL
Temperature
21°C / 70°F
Dewpoint
19°C / 66°F
Humidity
88%
Altimeter
29.87" Hg
Pressure
1011.52 hPa
Current Rain
0.07"